createdAt,value
2023-04-20T00:00:53.605Z,13.71
2023-04-20T00:03:21.543Z,13.63
2023-04-20T00:05:52.139Z,13.57
2023-04-20T00:08:19.484Z,13.70
2023-04-20T00:10:47.094Z,13.64
2023-04-20T00:13:14.431Z,13.62
2023-04-20T00:15:41.905Z,13.51
2023-04-20T00:18:09.314Z,13.26
2023-04-20T00:20:36.933Z,13.06
2023-04-20T00:23:04.416Z,12.96
2023-04-20T00:25:32.378Z,12.88
2023-04-20T00:28:00.370Z,12.81
2023-04-20T00:30:27.737Z,12.79
2023-04-20T00:32:55.422Z,12.88
2023-04-20T00:35:22.851Z,12.84
2023-04-20T00:37:52.305Z,12.69
2023-04-20T00:40:19.848Z,12.61
2023-04-20T00:42:47.264Z,12.49
2023-04-20T00:45:14.888Z,12.72
2023-04-20T00:47:43.053Z,12.80
2023-04-20T00:50:11.496Z,12.69
2023-04-20T00:52:40.871Z,12.75
2023-04-20T00:55:08.853Z,12.64
2023-04-20T00:57:36.544Z,12.59
2023-04-20T01:00:06.801Z,12.60
2023-04-20T01:02:34.255Z,12.68
2023-04-20T01:05:02.199Z,12.74
2023-04-20T01:07:30.244Z,12.79
2023-04-20T01:09:57.579Z,12.75
2023-04-20T01:12:25.005Z,12.87
2023-04-20T01:14:52.378Z,12.90
2023-04-20T01:17:20.649Z,12.84
2023-04-20T01:19:49.170Z,12.74
2023-04-20T01:22:22.934Z,12.59
2023-04-20T01:24:50.330Z,12.52
2023-04-20T01:27:17.697Z,12.49
2023-04-20T01:29:45.898Z,12.49
2023-04-20T01:32:13.526Z,12.35
2023-04-20T01:34:41.939Z,12.29
2023-04-20T01:37:09.728Z,12.25
2023-04-20T01:39:40.331Z,12.25
2023-04-20T01:42:07.883Z,12.22
2023-04-20T01:44:35.451Z,12.09
2023-04-20T01:47:02.910Z,12.08
2023-04-20T01:49:30.262Z,12.13
2023-04-20T01:51:58.378Z,12.15
2023-04-20T01:54:25.869Z,12.09
2023-04-20T01:56:53.265Z,12.17
2023-04-20T01:59:20.634Z,12.18
2023-04-20T02:01:48.077Z,12.09
2023-04-20T02:04:15.679Z,12.23
2023-04-20T02:06:43.164Z,12.19
2023-04-20T02:09:10.747Z,12.26
2023-04-20T02:11:38.216Z,12.21
2023-04-20T02:14:07.837Z,12.19
2023-04-20T02:16:36.661Z,12.27
2023-04-20T02:19:04.138Z,12.32
2023-04-20T02:21:31.604Z,12.19
2023-04-20T02:23:58.967Z,12.17
2023-04-20T02:26:27.606Z,12.35
2023-04-20T02:28:55.073Z,12.26
2023-04-20T02:31:22.508Z,12.32
2023-04-20T02:33:50.071Z,12.41
2023-04-20T02:36:17.445Z,12.43
2023-04-20T02:38:44.811Z,12.45
2023-04-20T02:41:12.158Z,12.54
2023-04-20T02:43:40.498Z,12.54
2023-04-20T02:46:08.259Z,12.56
2023-04-20T02:48:35.712Z,12.68
2023-04-20T02:51:03.519Z,12.71
2023-04-20T02:53:35.886Z,12.66
2023-04-20T02:56:26.377Z,12.47
2023-04-20T02:58:56.401Z,12.38
2023-04-20T03:01:36.586Z,12.49
2023-04-20T03:04:11.048Z,12.66
2023-04-20T03:06:45.159Z,12.48
2023-04-20T03:09:18.760Z,12.48
2023-04-20T03:12:06.719Z,12.39
2023-04-20T03:15:06.355Z,12.47
2023-04-20T03:17:52.581Z,12.32
2023-04-20T03:20:20.046Z,12.37
2023-04-20T03:22:47.647Z,12.30
2023-04-20T03:25:16.293Z,12.33
2023-04-20T03:28:06.589Z,12.36
2023-04-20T03:30:34.680Z,12.46
2023-04-20T03:33:10.522Z,12.50
2023-04-20T03:35:39.460Z,12.50
2023-04-20T03:38:06.947Z,12.29
2023-04-20T03:40:34.422Z,12.37
2023-04-20T03:43:02.195Z,12.24
2023-04-20T03:45:29.680Z,12.39
2023-04-20T03:47:57.112Z,12.29
2023-04-20T03:50:25.967Z,12.24
2023-04-20T03:52:53.334Z,12.29
2023-04-20T03:55:21.416Z,12.34
2023-04-20T03:57:55.547Z,12.25
2023-04-20T04:00:24.644Z,12.17
2023-04-20T04:02:58.307Z,12.24
2023-04-20T04:05:28.778Z,12.20
2023-04-20T04:07:56.208Z,12.15
2023-04-20T04:10:23.813Z,12.28
2023-04-20T04:12:51.207Z,12.37
2023-04-20T04:15:21.551Z,12.24
2023-04-20T04:17:55.974Z,12.33
2023-04-20T04:20:23.711Z,12.25
2023-04-20T04:22:52.178Z,12.28
2023-04-20T04:25:37.590Z,12.29
2023-04-20T04:28:05.014Z,12.24
2023-04-20T04:30:34.232Z,12.38
2023-04-20T04:33:04.912Z,12.32
2023-04-20T04:35:35.006Z,12.47
2023-04-20T04:38:02.606Z,12.44
2023-04-20T04:40:30.346Z,12.31
2023-04-20T04:43:00.344Z,12.28
2023-04-20T04:45:28.069Z,12.38
2023-04-20T04:47:57.204Z,12.31
2023-04-20T04:50:24.735Z,12.41
2023-04-20T04:52:52.733Z,12.47
2023-04-20T04:55:20.024Z,12.44
2023-04-20T04:57:47.386Z,12.25
2023-04-20T05:00:15.941Z,12.28
2023-04-20T05:02:43.365Z,12.31
2023-04-20T05:05:10.939Z,12.26
2023-04-20T05:07:40.034Z,12.39
2023-04-20T05:10:08.337Z,12.49
2023-04-20T05:12:36.206Z,12.42
2023-04-20T05:15:03.782Z,12.42
2023-04-20T05:17:31.347Z,12.40
2023-04-20T05:19:58.751Z,12.38
2023-04-20T05:22:26.113Z,12.50
2023-04-20T05:24:53.584Z,12.64
2023-04-20T05:27:20.965Z,12.53
2023-04-20T05:29:48.291Z,12.61
2023-04-20T05:32:15.691Z,12.55
2023-04-20T05:34:43.032Z,12.57
2023-04-20T05:37:10.403Z,12.48
2023-04-20T05:39:37.809Z,12.59
2023-04-20T05:42:05.219Z,12.61
2023-04-20T05:44:34.019Z,12.78
2023-04-20T05:47:01.464Z,12.76
2023-04-20T05:49:28.807Z,12.78
2023-04-20T05:51:56.213Z,12.91
2023-04-20T05:54:23.607Z,12.90
2023-04-20T05:56:50.956Z,12.97
2023-04-20T05:59:18.742Z,12.94
2023-04-20T06:01:46.281Z,13.02
2023-04-20T06:04:13.881Z,12.98
2023-04-20T06:06:41.514Z,13.07
2023-04-20T06:09:08.943Z,13.12
2023-04-20T06:11:36.565Z,13.11
2023-04-20T06:14:03.942Z,13.05
2023-04-20T06:16:31.602Z,13.22
2023-04-20T06:18:59.068Z,13.20
2023-04-20T06:21:27.282Z,13.31
2023-04-20T06:23:54.642Z,13.37
2023-04-20T06:26:22.186Z,13.23
2023-04-20T06:28:51.874Z,13.23
2023-04-20T06:31:20.536Z,13.27
2023-04-20T06:33:48.055Z,13.32
2023-04-20T06:36:15.548Z,13.39
2023-04-20T06:38:42.890Z,13.33
2023-04-20T06:41:10.276Z,13.17
2023-04-20T06:43:37.597Z,13.17
2023-04-20T06:46:05.020Z,13.06
2023-04-20T06:48:33.187Z,13.23
2023-04-20T06:51:01.692Z,13.30
2023-04-20T06:53:29.159Z,13.31
2023-04-20T06:55:56.980Z,13.28
2023-04-20T06:58:24.429Z,13.41
2023-04-20T07:00:51.949Z,13.35
2023-04-20T07:03:19.680Z,13.25
2023-04-20T07:05:47.211Z,13.44
2023-04-20T07:08:16.002Z,13.47
2023-04-20T07:10:43.619Z,13.72
2023-04-20T07:13:11.252Z,13.57
2023-04-20T07:15:38.581Z,13.54
2023-04-20T07:18:06.361Z,13.56
2023-04-20T07:20:33.846Z,13.70
2023-04-20T07:23:01.183Z,13.57
2023-04-20T07:25:29.432Z,13.55
2023-04-20T07:27:57.028Z,13.59
2023-04-20T07:30:24.781Z,13.55
2023-04-20T07:32:52.209Z,13.66
2023-04-20T07:35:19.726Z,13.48
2023-04-20T07:37:47.528Z,13.64
2023-04-20T07:40:16.834Z,13.64
2023-04-20T07:42:44.197Z,13.60
2023-04-20T07:45:12.904Z,13.54
2023-04-20T07:47:40.613Z,13.62
2023-04-20T07:50:08.290Z,13.74
2023-04-20T07:52:35.852Z,13.62
2023-04-20T07:55:03.250Z,13.72
2023-04-20T07:57:31.986Z,13.73
2023-04-20T07:59:59.429Z,13.59
2023-04-20T08:02:27.000Z,13.83
2023-04-20T08:04:54.791Z,13.92
2023-04-20T08:07:22.612Z,13.86
2023-04-20T08:09:50.067Z,13.79
2023-04-20T08:12:17.434Z,14.07
2023-04-20T08:14:45.264Z,14.30
2023-04-20T08:17:12.641Z,14.38
2023-04-20T08:19:41.089Z,14.50
2023-04-20T08:22:12.295Z,14.30
2023-04-20T08:24:39.647Z,14.43
2023-04-20T08:27:08.921Z,14.46
2023-04-20T08:29:36.733Z,14.60
2023-04-20T08:32:04.882Z,14.40
2023-04-20T08:34:32.547Z,14.51
2023-04-20T08:36:59.978Z,14.42
2023-04-20T08:39:27.416Z,14.56
2023-04-20T08:41:55.775Z,14.44
2023-04-20T08:44:24.423Z,14.40
2023-04-20T08:46:51.941Z,14.31
2023-04-20T08:49:20.011Z,14.21
2023-04-20T08:51:48.792Z,14.39
2023-04-20T08:54:16.922Z,14.48
2023-04-20T08:56:48.261Z,14.41
2023-04-20T08:59:16.891Z,14.23
2023-04-20T09:01:44.917Z,14.27
2023-04-20T09:04:27.173Z,14.22
2023-04-20T09:06:56.541Z,14.21
2023-04-20T09:09:25.657Z,14.40
2023-04-20T09:12:04.148Z,14.36
2023-04-20T09:14:48.721Z,14.28
2023-04-20T09:17:18.039Z,14.25
2023-04-20T09:19:46.616Z,14.24
2023-04-20T09:22:14.576Z,14.29
2023-04-20T09:24:42.756Z,14.38
2023-04-20T09:27:17.953Z,14.56
2023-04-20T09:29:57.839Z,14.45
2023-04-20T09:32:26.581Z,14.58
2023-04-20T09:34:54.859Z,14.70
2023-04-20T09:37:23.040Z,14.92
2023-04-20T09:39:56.049Z,14.81
2023-04-20T09:42:28.129Z,14.85
2023-04-20T09:44:56.095Z,14.84
2023-04-20T09:47:25.939Z,14.68
2023-04-20T09:49:54.762Z,14.53
2023-04-20T09:52:24.330Z,14.46
2023-04-20T09:54:51.802Z,14.59
2023-04-20T09:57:19.416Z,14.59
2023-04-20T09:59:47.274Z,14.44
2023-04-20T10:02:15.108Z,14.41
2023-04-20T10:04:56.740Z,14.41
2023-04-20T10:07:28.907Z,14.30
2023-04-20T10:10:14.163Z,14.25
2023-04-20T10:12:53.192Z,14.20
2023-04-20T10:15:24.463Z,14.20
2023-04-20T10:17:52.125Z,14.18
2023-04-20T10:20:24.427Z,14.14
2023-04-20T10:22:53.734Z,14.18
2023-04-20T10:25:24.714Z,14.14
2023-04-20T10:27:57.375Z,14.08
2023-04-20T10:30:26.854Z,14.09
2023-04-20T10:33:08.749Z,14.13
2023-04-20T10:35:43.356Z,14.13
2023-04-20T10:38:12.941Z,14.08
2023-04-20T10:40:40.310Z,14.08
2023-04-20T10:43:21.476Z,13.95
2023-04-20T10:45:50.282Z,14.00
2023-04-20T10:48:18.419Z,13.87
2023-04-20T10:50:46.064Z,13.86
2023-04-20T10:53:23.917Z,13.87
2023-04-20T10:56:01.259Z,13.79
2023-04-20T10:58:28.790Z,13.62
2023-04-20T11:01:05.856Z,13.52
2023-04-20T11:03:34.642Z,13.25
2023-04-20T11:06:04.015Z,12.91
2023-04-20T11:08:43.235Z,12.67
2023-04-20T11:11:28.316Z,12.52
2023-04-20T11:14:09.219Z,12.33
2023-04-20T11:16:50.530Z,12.25
2023-04-20T11:19:24.175Z,12.01
2023-04-20T11:21:51.577Z,12.03
2023-04-20T11:24:20.400Z,11.95
2023-04-20T11:26:50.356Z,12.13
2023-04-20T11:29:39.246Z,12.02
2023-04-20T11:32:09.596Z,12.19
2023-04-20T11:34:39.101Z,12.18
2023-04-20T11:37:13.114Z,12.48
2023-04-20T11:39:41.249Z,12.54
2023-04-20T11:42:08.619Z,12.46
2023-04-20T11:44:37.045Z,12.57
2023-04-20T11:47:04.833Z,12.55
2023-04-20T11:49:32.430Z,12.57
2023-04-20T11:52:00.170Z,12.47
2023-04-20T11:54:28.469Z,12.50
2023-04-20T11:56:56.516Z,12.48
2023-04-20T11:59:23.922Z,12.67
2023-04-20T12:01:52.231Z,12.51
2023-04-20T12:04:19.737Z,12.63
2023-04-20T12:06:47.451Z,12.80
2023-04-20T12:09:15.137Z,12.80
2023-04-20T12:11:42.596Z,12.77
2023-04-20T12:14:09.995Z,12.80
2023-04-20T12:16:37.458Z,12.73
2023-04-20T12:19:04.819Z,12.76
2023-04-20T12:21:32.550Z,12.70
2023-04-20T12:23:59.943Z,12.63
2023-04-20T12:26:37.181Z,12.77
2023-04-20T12:29:05.803Z,12.80
2023-04-20T12:31:33.324Z,12.70
2023-04-20T12:34:00.690Z,12.72
2023-04-20T12:36:28.337Z,12.74
2023-04-20T12:38:56.146Z,12.78
2023-04-20T12:41:23.817Z,12.85
2023-04-20T12:43:51.454Z,12.90
2023-04-20T12:46:19.167Z,13.00
2023-04-20T12:48:46.594Z,13.00
2023-04-20T12:51:15.233Z,13.09
2023-04-20T12:53:42.582Z,13.11
2023-04-20T12:56:09.987Z,13.28
2023-04-20T12:58:37.320Z,13.47
2023-04-20T13:01:04.671Z,13.60
2023-04-20T13:03:32.813Z,13.61
2023-04-20T13:06:00.611Z,13.64
2023-04-20T13:08:28.010Z,13.81
2023-04-20T13:10:55.385Z,13.90
2023-04-20T13:13:22.778Z,13.87
2023-04-20T13:15:50.420Z,13.99
2023-04-20T13:18:17.758Z,13.87
2023-04-20T13:20:45.195Z,13.90
2023-04-20T13:23:12.516Z,13.91
2023-04-20T13:25:40.785Z,14.08
2023-04-20T13:28:08.122Z,14.17
2023-04-20T13:30:35.581Z,14.26
2023-04-20T13:33:02.964Z,14.14
2023-04-20T13:35:31.595Z,14.15
2023-04-20T13:37:59.114Z,14.04
2023-04-20T13:40:26.499Z,14.17
2023-04-20T13:42:53.834Z,14.17
2023-04-20T13:45:21.219Z,14.11
2023-04-20T13:47:48.685Z,14.13
2023-04-20T13:50:16.196Z,14.21
2023-04-20T13:52:43.499Z,14.16
2023-04-20T13:55:11.296Z,14.16
2023-04-20T13:57:38.675Z,14.31
2023-04-20T14:00:07.534Z,14.31
2023-04-20T14:02:36.146Z,14.36
2023-04-20T14:05:04.188Z,14.25
2023-04-20T14:07:32.432Z,14.26
2023-04-20T14:10:00.002Z,14.32
2023-04-20T14:12:49.396Z,14.29
2023-04-20T14:15:16.939Z,14.17
2023-04-20T14:17:44.358Z,14.01
2023-04-20T14:20:12.349Z,14.20
2023-04-20T14:22:39.718Z,14.11
2023-04-20T14:25:07.522Z,14.06
2023-04-20T14:27:34.889Z,14.05
2023-04-20T14:30:03.862Z,14.08
2023-04-20T14:32:31.471Z,14.14
2023-04-20T14:34:59.000Z,14.25
2023-04-20T14:37:27.511Z,14.25
2023-04-20T14:39:54.988Z,14.21
2023-04-20T14:42:23.076Z,14.12
2023-04-20T14:44:50.933Z,14.14
2023-04-20T14:47:18.682Z,14.07
2023-04-20T14:49:46.105Z,14.10
2023-04-20T14:52:13.528Z,14.04
2023-04-20T14:54:40.975Z,14.00
2023-04-20T14:57:08.421Z,13.91
2023-04-20T14:59:37.212Z,14.12
2023-04-20T15:02:05.916Z,13.97
2023-04-20T15:04:33.844Z,13.86
2023-04-20T15:07:01.415Z,13.95
2023-04-20T15:09:29.245Z,13.84
2023-04-20T15:11:57.063Z,13.70
2023-04-20T15:14:25.214Z,13.79
2023-04-20T15:16:52.959Z,13.57
2023-04-20T15:19:21.558Z,13.71
2023-04-20T15:21:49.439Z,13.75
2023-04-20T15:24:17.232Z,13.72
2023-04-20T15:26:44.957Z,13.59
2023-04-20T15:29:12.472Z,13.55
2023-04-20T15:31:40.412Z,13.51
2023-04-20T15:34:08.033Z,13.55
2023-04-20T15:36:35.601Z,13.54
2023-04-20T15:39:03.853Z,13.51
2023-04-20T15:41:31.393Z,13.35
2023-04-20T15:43:58.851Z,13.28
2023-04-20T15:46:26.648Z,13.39
2023-04-20T15:48:54.249Z,13.24
2023-04-20T15:51:21.722Z,13.17
2023-04-20T15:53:50.798Z,13.25
2023-04-20T15:56:22.288Z,13.16
2023-04-20T15:58:50.953Z,13.22
2023-04-20T16:01:19.741Z,13.37
2023-04-20T16:03:47.996Z,13.25
2023-04-20T16:06:15.557Z,13.36
2023-04-20T16:08:43.013Z,13.35
2023-04-20T16:11:10.552Z,13.38
2023-04-20T16:13:38.028Z,13.33
2023-04-20T16:16:05.690Z,13.34
2023-04-20T16:18:33.074Z,13.40
2023-04-20T16:21:00.610Z,13.41
2023-04-20T16:23:28.747Z,13.49
2023-04-20T16:25:56.252Z,13.38
2023-04-20T16:28:23.617Z,13.34
2023-04-20T16:30:50.986Z,13.39
2023-04-20T16:33:18.899Z,13.47
2023-04-20T16:35:46.377Z,13.41
2023-04-20T16:38:13.924Z,13.43
2023-04-20T16:40:42.758Z,13.45
2023-04-20T16:43:10.372Z,13.41
2023-04-20T16:45:39.105Z,13.40
2023-04-20T16:48:08.103Z,13.59
2023-04-20T16:50:37.789Z,13.57
2023-04-20T16:53:06.839Z,13.50
2023-04-20T16:55:34.407Z,13.44
2023-04-20T16:58:01.786Z,13.37
2023-04-20T17:00:30.540Z,13.38
2023-04-20T17:02:58.663Z,13.30
2023-04-20T17:05:26.029Z,13.31
2023-04-20T17:07:53.352Z,13.34
2023-04-20T17:10:21.395Z,13.36
2023-04-20T17:12:50.878Z,13.35
2023-04-20T17:15:18.582Z,13.21
2023-04-20T17:17:46.016Z,13.43
2023-04-20T17:20:13.836Z,13.26
2023-04-20T17:22:41.356Z,13.45
2023-04-20T17:25:09.439Z,13.27
2023-04-20T17:27:36.828Z,13.35
2023-04-20T17:30:05.680Z,13.42
2023-04-20T17:32:33.454Z,13.22
2023-04-20T17:35:01.111Z,13.17
2023-04-20T17:37:28.454Z,13.03
2023-04-20T17:39:55.970Z,12.89
2023-04-20T17:42:23.460Z,12.42
2023-04-20T17:44:51.403Z,12.06
2023-04-20T17:47:18.832Z,11.93
2023-04-20T17:49:46.236Z,11.86
2023-04-20T17:52:17.929Z,11.63
2023-04-20T17:54:45.505Z,11.68
2023-04-20T17:57:14.196Z,11.57
2023-04-20T17:59:44.585Z,11.53
2023-04-20T18:02:12.776Z,11.52
2023-04-20T18:04:40.516Z,11.35
2023-04-20T18:07:07.897Z,11.48
2023-04-20T18:09:35.355Z,11.45
2023-04-20T18:12:02.783Z,11.58
2023-04-20T18:14:30.129Z,11.56
2023-04-20T18:16:57.489Z,11.41
2023-04-20T18:19:24.936Z,11.37
2023-04-20T18:21:52.288Z,11.34
2023-04-20T18:24:19.759Z,11.30
2023-04-20T18:26:47.251Z,11.40
2023-04-20T18:29:14.611Z,11.38
2023-04-20T18:31:42.757Z,11.50
2023-04-20T18:34:12.859Z,11.44
2023-04-20T18:36:40.859Z,11.49
2023-04-20T18:39:11.141Z,11.40
2023-04-20T18:41:38.611Z,11.54
2023-04-20T18:44:07.696Z,11.55
2023-04-20T18:46:35.196Z,11.50
2023-04-20T18:49:02.701Z,11.57
2023-04-20T18:51:30.133Z,11.66
2023-04-20T18:53:58.047Z,11.53
2023-04-20T18:56:25.882Z,11.51
2023-04-20T18:58:53.260Z,11.65
2023-04-20T19:01:20.655Z,11.65
2023-04-20T19:03:50.202Z,11.52
2023-04-20T19:06:17.662Z,11.67
2023-04-20T19:08:45.079Z,11.67
2023-04-20T19:11:12.529Z,11.63
2023-04-20T19:13:44.486Z,11.66
2023-04-20T19:16:12.776Z,11.76
2023-04-20T19:18:40.406Z,11.68
2023-04-20T19:21:07.810Z,11.73
2023-04-20T19:23:36.282Z,11.81
2023-04-20T19:26:04.220Z,11.83
2023-04-20T19:28:31.699Z,11.88
2023-04-20T19:31:00.015Z,11.75
2023-04-20T19:33:27.387Z,11.81
2023-04-20T19:35:54.943Z,11.87
2023-04-20T19:38:24.488Z,11.89
2023-04-20T19:40:52.260Z,11.80
2023-04-20T19:43:19.728Z,11.94
2023-04-20T19:45:47.669Z,11.93
2023-04-20T19:48:15.360Z,11.91
2023-04-20T19:50:42.711Z,11.93
2023-04-20T19:53:10.187Z,11.88
2023-04-20T19:55:37.803Z,11.80
2023-04-20T19:58:09.224Z,11.94
2023-04-20T20:00:40.051Z,11.88
2023-04-20T20:03:08.164Z,12.03
2023-04-20T20:05:35.831Z,12.04
2023-04-20T20:08:04.427Z,11.94
2023-04-20T20:10:32.317Z,12.02
2023-04-20T20:12:59.646Z,12.14
2023-04-20T20:15:27.124Z,12.04
2023-04-20T20:17:58.715Z,12.11
2023-04-20T20:20:32.350Z,12.13
2023-04-20T20:23:00.198Z,11.99
2023-04-20T20:25:27.548Z,11.78
2023-04-20T20:27:54.943Z,11.73
2023-04-20T20:30:22.500Z,11.80
2023-04-20T20:32:50.352Z,11.78
2023-04-20T20:35:17.761Z,11.79
2023-04-20T20:37:45.342Z,11.70
2023-04-20T20:40:15.240Z,11.67
2023-04-20T20:42:45.066Z,11.69
2023-04-20T20:45:13.109Z,11.49
2023-04-20T20:47:42.243Z,11.70
2023-04-20T20:50:11.557Z,11.60
2023-04-20T20:52:39.256Z,11.63
2023-04-20T20:55:07.993Z,11.71
2023-04-20T20:57:35.992Z,11.65
2023-04-20T21:00:09.527Z,11.56
2023-04-20T21:02:37.774Z,11.62
2023-04-20T21:05:06.441Z,11.61
2023-04-20T21:07:33.857Z,11.54
2023-04-20T21:10:01.295Z,11.54
2023-04-20T21:12:28.971Z,11.70
2023-04-20T21:14:56.879Z,11.60
2023-04-20T21:17:24.252Z,11.60
2023-04-20T21:19:51.670Z,11.64
2023-04-20T21:22:20.198Z,11.70
2023-04-20T21:24:47.534Z,11.58
2023-04-20T21:27:14.854Z,11.64
2023-04-20T21:29:42.211Z,11.77
2023-04-20T21:32:09.954Z,11.71
2023-04-20T21:34:37.353Z,11.86
2023-04-20T21:37:05.732Z,11.96
2023-04-20T21:39:33.452Z,11.85
2023-04-20T21:42:01.503Z,11.88
2023-04-20T21:44:28.988Z,11.82
2023-04-20T21:46:56.388Z,11.85
2023-04-20T21:49:23.729Z,11.80
2023-04-20T21:51:51.155Z,11.85
2023-04-20T21:54:18.478Z,11.82
2023-04-20T21:56:46.631Z,11.83
2023-04-20T21:59:14.504Z,11.84
2023-04-20T22:01:41.865Z,11.78
2023-04-20T22:04:09.662Z,12.02
2023-04-20T22:06:37.292Z,11.92
2023-04-20T22:09:05.069Z,12.00
2023-04-20T22:11:36.436Z,11.99
2023-04-20T22:14:04.588Z,12.02
2023-04-20T22:16:34.022Z,12.12
2023-04-20T22:19:01.580Z,12.17
2023-04-20T22:21:28.970Z,12.22
2023-04-20T22:23:56.323Z,12.20
2023-04-20T22:26:23.828Z,12.29
2023-04-20T22:28:51.271Z,12.29
2023-04-20T22:31:18.710Z,12.37
2023-04-20T22:33:46.139Z,12.41
2023-04-20T22:36:13.671Z,12.43
2023-04-20T22:38:41.163Z,12.31
2023-04-20T22:41:08.766Z,12.45
2023-04-20T22:43:36.170Z,12.44
2023-04-20T22:46:03.622Z,12.43
2023-04-20T22:48:31.134Z,12.39
2023-04-20T22:51:01.439Z,12.42
2023-04-20T22:53:31.658Z,12.35
2023-04-20T22:56:03.780Z,12.42
2023-04-20T22:58:31.500Z,12.48
2023-04-20T23:00:59.291Z,12.49
2023-04-20T23:03:27.143Z,12.49
2023-04-20T23:05:57.462Z,12.42
2023-04-20T23:08:26.002Z,12.35
2023-04-20T23:10:56.401Z,12.36
2023-04-20T23:13:26.481Z,12.43
2023-04-20T23:15:54.263Z,12.40
2023-04-20T23:18:21.731Z,12.44
2023-04-20T23:20:49.099Z,12.38
2023-04-20T23:23:16.486Z,12.29
2023-04-20T23:25:44.096Z,12.23
2023-04-20T23:28:11.557Z,12.35
2023-04-20T23:30:39.011Z,12.31
2023-04-20T23:33:06.498Z,12.26
2023-04-20T23:35:34.310Z,12.33
2023-04-20T23:38:03.328Z,12.28
2023-04-20T23:40:31.217Z,12.31
2023-04-20T23:42:58.681Z,12.32
2023-04-20T23:45:26.096Z,12.28
2023-04-20T23:47:53.581Z,12.22
2023-04-20T23:50:21.169Z,12.29
2023-04-20T23:52:48.695Z,12.30
2023-04-20T23:55:16.196Z,12.21
2023-04-20T23:57:43.725Z,12.23
